Time;durP1;ratioP1;P1;durP2;ratioP2;P2;SDS_P1;SDS_P2;PMS_P1;PMS_P2;Temp;Humidity;BMP_temperature;BMP_pressure;BME280_temperature;BME280_humidity;BME280_pressure;Samples;Min_cycle;Max_cycle;Signal;HPM_P1;HPM_P2
2021/06/15 00:02:18;;;;;;;6.82;3.63;;;;;;;11.40;74.40;95851.81;4880653;29;20049;-76
2021/06/15 00:04:43;;;;;;;6.88;3.53;;;;;;;11.38;74.43;95852.06;4891098;29;20041;-76
2021/06/15 00:07:09;;;;;;;5.90;3.70;;;;;;;11.36;74.73;95853.38;4893773;29;20095;-76
2021/06/15 00:09:34;;;;;;;6.78;4.00;;;;;;;11.22;75.19;95851.28;4901960;29;20040;-76
2021/06/15 00:12:01;;;;;;;7.30;3.92;;;;;;;11.18;75.15;95850.25;4880344;29;20056;-76
2021/06/15 00:14:26;;;;;;;7.65;3.92;;;;;;;11.08;76.10;95844.97;4881879;29;20144;-76
2021/06/15 00:16:53;;;;;;;6.60;4.30;;;;;;;10.98;77.10;95845.00;4884534;29;20494;-76
2021/06/15 00:19:18;;;;;;;6.53;4.30;;;;;;;10.98;77.11;95850.25;4877334;29;20041;-76
2021/06/15 00:21:44;;;;;;;7.43;4.03;;;;;;;10.92;76.69;95847.59;4881971;29;20053;-76
2021/06/15 00:24:10;;;;;;;6.95;3.97;;;;;;;10.91;76.49;95846.00;4882780;29;20047;-76
2021/06/15 00:26:35;;;;;;;7.93;4.05;;;;;;;10.88;76.74;95851.81;4886489;29;20040;-75
2021/06/15 00:29:01;;;;;;;8.27;3.55;;;;;;;10.87;76.48;95850.22;4888494;29;20109;-76
2021/06/15 00:31:27;;;;;;;6.18;4.10;;;;;;;10.78;77.00;95841.28;4889932;29;20052;-75
2021/06/15 00:33:53;;;;;;;6.97;3.85;;;;;;;10.80;77.35;95841.78;4884501;29;20041;-76
2021/06/15 00:36:19;;;;;;;7.72;4.43;;;;;;;10.63;77.50;95844.69;4875322;29;20045;-76
2021/06/15 00:38:44;;;;;;;6.65;4.10;;;;;;;10.65;77.60;95841.81;4886478;29;20041;-76
2021/06/15 00:41:10;;;;;;;5.38;3.83;;;;;;;10.57;78.02;95841.25;4884607;29;20118;-75
2021/06/15 00:43:35;;;;;;;8.30;3.83;;;;;;;10.61;77.76;95843.38;4890924;29;20515;-76
2021/06/15 00:46:01;;;;;;;5.50;4.05;;;;;;;10.65;77.57;95847.06;4890266;29;20051;-76
2021/06/15 00:48:30;;;;;;;5.53;3.72;;;;;;;10.71;76.65;95843.38;4888752;29;20041;-75
2021/06/15 00:50:56;;;;;;;6.70;3.80;;;;;;;10.67;76.51;95845.72;4876413;29;20044;-76
2021/06/15 00:53:21;;;;;;;6.68;3.88;;;;;;;10.60;76.67;95844.41;4877825;29;20145;-75
2021/06/15 00:55:49;;;;;;;5.43;3.80;;;;;;;10.56;76.09;95837.03;4893238;29;20431;-76
2021/06/15 00:58:14;;;;;;;7.03;3.63;;;;;;;10.48;75.67;95837.53;4889866;29;20049;-75
2021/06/15 01:00:40;;;;;;;6.90;3.78;;;;;;;10.40;75.82;95840.69;4882156;29;20053;-76
2021/06/15 01:03:06;;;;;;;6.97;3.63;;;;;;;10.36;76.44;95839.63;4911722;29;20471;-76
2021/06/15 01:05:32;;;;;;;6.88;3.83;;;;;;;10.27;76.41;95830.63;4893334;29;20041;-76
2021/06/15 01:08:27;;;;;;;5.68;3.60;;;;;;;10.31;76.08;95831.69;4904872;29;20125;-77
2021/06/15 01:10:56;;;;;;;5.57;3.50;;;;;;;10.30;76.02;95841.44;4876230;29;20108;-76
2021/06/15 01:13:44;;;;;;;6.57;3.45;;;;;;;10.33;75.95;95834.84;4891907;29;20545;-76
2021/06/15 01:16:26;;;;;;;6.35;3.40;;;;;;;10.30;76.31;95830.09;4894170;29;20040;-76
2021/06/15 01:19:26;;;;;;;6.35;3.50;;;;;;;10.22;76.82;95828.78;4887400;29;20048;-76
2021/06/15 01:22:14;;;;;;;7.05;3.92;;;;;;;10.04;78.12;95822.94;4898853;29;20059;-76
2021/06/15 01:24:51;;;;;;;7.22;3.72;;;;;;;9.97;78.75;95821.56;4895111;29;20056;-76
2021/06/15 01:27:41;;;;;;;7.47;4.40;;;;;;;9.96;79.03;95827.91;4907002;29;20075;-75
2021/06/15 01:30:11;;;;;;;9.85;3.92;;;;;;;9.97;78.66;95832.09;4899663;29;20045;-76
2021/06/15 01:32:39;;;;;;;6.50;3.97;;;;;;;9.96;78.62;95820.03;4877593;29;20124;-76
2021/06/15 01:35:07;;;;;;;5.88;3.80;;;;;;;9.95;78.89;95824.47;4878663;29;20324;-76
2021/06/15 01:37:37;;;;;;;6.90;4.10;;;;;;;9.93;78.91;95820.50;4888060;29;20040;-77
2021/06/15 01:40:47;;;;;;;7.22;4.03;;;;;;;9.88;78.75;95816.84;4897436;29;20462;-76
2021/06/15 01:43:23;;;;;;;6.43;4.20;;;;;;;9.80;78.50;95817.31;4862934;29;20061;-76
2021/06/15 01:45:52;;;;;;;7.32;3.85;;;;;;;9.83;77.75;95822.06;4885869;29;20036;-75
2021/06/15 01:48:37;;;;;;;6.63;3.72;;;;;;;9.83;77.63;95821.28;4902600;29;20047;-76
2021/06/15 01:51:04;;;;;;;6.50;4.00;;;;;;;9.75;77.99;95819.91;4903863;29;20050;-76
2021/06/15 01:53:33;;;;;;;8.07;3.70;;;;;;;9.71;78.01;95818.84;4899181;29;20048;-76
2021/06/15 01:56:03;;;;;;;6.32;3.95;;;;;;;9.52;78.64;95811.41;4881423;29;20166;-76
2021/06/15 01:58:30;;;;;;;6.68;4.03;;;;;;;9.60;78.44;95811.97;4892949;29;20407;-76
2021/06/15 02:00:56;;;;;;;6.18;4.10;;;;;;;9.52;78.58;95806.16;4904926;29;20425;-76
2021/06/15 02:03:23;;;;;;;6.25;3.83;;;;;;;9.56;78.48;95810.91;4901413;29;20041;-76
2021/06/15 02:05:56;;;;;;;4.97;3.30;;;;;;;9.60;77.88;95806.72;4894476;29;20041;-76
2021/06/15 02:08:27;;;;;;;9.73;4.20;;;;;;;9.48;78.22;95810.34;4895055;29;20570;-75
2021/06/15 02:10:55;;;;;;;9.95;4.15;;;;;;;9.47;78.81;95803.50;4899643;29;20051;-76
2021/06/15 02:13:23;;;;;;;8.73;4.00;;;;;;;9.41;79.21;95799.25;4915309;29;20059;-76
2021/06/15 02:15:49;;;;;;;6.28;3.78;;;;;;;9.40;79.61;95802.94;4909881;29;20045;-76
2021/06/15 02:18:21;;;;;;;6.70;4.18;;;;;;;9.28;80.22;95804.94;4886535;29;20075;-76
2021/06/15 02:20:49;;;;;;;5.88;4.15;;;;;;;9.21;80.39;95799.13;4883019;29;20047;-76
2021/06/15 02:23:21;;;;;;;9.18;4.00;;;;;;;9.28;79.73;95797.06;4911003;29;20040;-76
2021/06/15 02:25:53;;;;;;;8.82;4.07;;;;;;;9.29;79.18;95796.81;4897159;29;20076;-76
2021/06/15 02:28:20;;;;;;;7.32;3.95;;;;;;;9.29;79.25;95796.81;4886543;29;20081;-76
2021/06/15 02:30:46;;;;;;;8.93;3.90;;;;;;;9.32;78.98;95800.78;4879945;29;20044;-76
2021/06/15 02:33:17;;;;;;;6.50;3.83;;;;;;;9.30;78.73;95803.66;4908836;29;20138;-76
2021/06/15 02:35:48;;;;;;;6.32;4.10;;;;;;;9.27;78.96;95803.38;4884499;29;20471;-76
2021/06/15 02:38:21;;;;;;;6.50;4.10;;;;;;;9.24;78.87;95809.94;4878946;29;20076;-76
2021/06/15 02:40:49;;;;;;;8.43;4.25;;;;;;;9.19;78.88;95810.69;4897515;29;20040;-76
2021/06/15 02:43:17;;;;;;;7.40;4.35;;;;;;;9.15;79.61;95812.22;4910095;29;20045;-76
2021/06/15 02:45:44;;;;;;;7.70;4.55;;;;;;;9.14;79.01;95810.66;4904255;29;20076;-76
2021/06/15 02:48:13;;;;;;;6.90;3.83;;;;;;;9.10;79.82;95812.19;4890707;29;20507;-76
2021/06/15 02:50:39;;;;;;;7.88;3.85;;;;;;;9.10;79.35;95814.81;4881930;29;20041;-76
2021/06/15 02:53:10;;;;;;;6.18;4.00;;;;;;;9.06;79.47;95808.47;4909809;29;20498;-76
2021/06/15 02:55:39;;;;;;;5.95;3.80;;;;;;;8.99;79.79;95821.03;4906318;29;20105;-75
2021/06/15 02:58:05;;;;;;;6.85;3.78;;;;;;;8.95;79.89;95817.31;4891075;29;20049;-76
2021/06/15 03:00:31;;;;;;;6.18;4.18;;;;;;;8.87;80.84;95821.22;4878882;29;20104;-75
2021/06/15 03:02:57;;;;;;;7.50;4.22;;;;;;;8.82;80.95;95819.34;4884695;29;20037;-75
2021/06/15 03:05:23;;;;;;;6.85;3.70;;;;;;;8.84;81.01;95819.88;4880363;29;20044;-76
2021/06/15 03:07:49;;;;;;;9.50;4.10;;;;;;;8.87;81.01;95825.69;4877708;29;20049;-75
2021/06/15 03:10:16;;;;;;;6.80;4.00;;;;;;;8.84;81.19;95827.75;4891713;29;20041;-76
2021/06/15 03:13:05;;;;;;;6.38;4.45;;;;;;;8.83;80.98;95820.94;4914602;29;20044;-76
2021/06/15 03:15:53;;;;;;;7.45;4.38;;;;;;;8.86;80.52;95824.88;4891973;29;20438;-76
2021/06/15 03:18:27;;;;;;;7.03;3.97;;;;;;;8.86;80.84;95824.09;4909034;29;20172;-76
2021/06/15 03:20:56;;;;;;;8.23;4.15;;;;;;;8.81;80.20;95828.25;4880799;29;20040;-76
2021/06/15 03:23:28;;;;;;;6.10;3.92;;;;;;;8.84;79.53;95832.22;4878009;29;20456;-75
2021/06/15 03:25:56;;;;;;;7.03;3.70;;;;;;;8.82;79.30;95835.09;4889707;29;20080;-76
2021/06/15 03:28:25;;;;;;;7.65;3.95;;;;;;;8.84;79.44;95832.22;4891690;29;20558;-76
2021/06/15 03:30:53;;;;;;;7.25;4.05;;;;;;;8.81;79.37;95825.63;4880621;29;20128;-76
2021/06/15 03:33:21;;;;;;;9.15;4.30;;;;;;;8.80;79.45;95821.41;4911332;29;20047;-76
2021/06/15 03:35:54;;;;;;;10.38;4.30;;;;;;;8.82;79.63;95829.84;4888558;29;20056;-76
2021/06/15 03:38:24;;;;;;;10.57;4.22;;;;;;;8.80;79.86;95824.03;4879134;29;20116;-76
2021/06/15 03:40:51;;;;;;;6.38;3.95;;;;;;;8.76;80.08;95815.06;4904669;29;20414;-76
2021/06/15 03:43:19;;;;;;;6.03;3.95;;;;;;;8.83;80.31;95826.19;4925340;29;20478;-76
2021/06/15 03:46:02;;;;;;;7.63;3.88;;;;;;;8.76;81.06;95812.44;4899612;29;20052;-76
2021/06/15 03:48:30;;;;;;;4.72;3.65;;;;;;;8.87;80.26;95815.19;4893247;29;20045;-75
2021/06/15 03:50:57;;;;;;;6.55;3.72;;;;;;;8.87;80.99;95820.44;4893263;29;20399;-76
2021/06/15 03:53:29;;;;;;;5.70;4.05;;;;;;;8.82;81.19;95824.59;4902024;29;20054;-76
2021/06/15 03:55:57;;;;;;;12.35;4.05;;;;;;;8.88;80.76;95822.00;4889633;29;20032;-76
2021/06/15 03:58:23;;;;;;;5.70;4.00;;;;;;;8.91;80.54;95811.00;4885380;29;20052;-76
2021/06/15 04:00:50;;;;;;;6.28;4.13;;;;;;;8.96;80.65;95829.41;4887800;29;20044;-76
2021/06/15 04:03:17;;;;;;;5.80;3.60;;;;;;;8.96;81.55;95824.94;4899455;29;20501;-76
2021/06/15 04:05:44;;;;;;;7.10;3.97;;;;;;;9.06;81.52;95824.22;4895415;29;20050;-76
2021/06/15 04:08:14;;;;;;;9.80;4.43;;;;;;;9.11;81.14;95821.66;4888399;29;20051;-75
2021/06/15 04:10:43;;;;;;;7.93;4.25;;;;;;;9.17;80.80;95820.63;4893632;29;20051;-76
2021/06/15 04:13:10;;;;;;;6.25;4.10;;;;;;;9.25;80.69;95822.03;4890631;29;20049;-76
2021/06/15 04:15:36;;;;;;;6.60;4.10;;;;;;;9.33;80.54;95813.66;4911187;29;20055;-76
2021/06/15 04:18:04;;;;;;;5.95;4.13;;;;;;;9.35;80.74;95816.03;4904644;29;20053;-76
2021/06/15 04:20:34;;;;;;;7.35;4.30;;;;;;;9.38;80.50;95820.78;4891440;29;20053;-76
2021/06/15 04:23:03;;;;;;;6.85;4.18;;;;;;;9.44;80.51;95814.50;4904051;29;20123;-76
2021/06/15 04:25:31;;;;;;;7.43;4.18;;;;;;;9.47;81.00;95824.50;4882154;29;20286;-76
2021/06/15 04:28:00;;;;;;;9.93;4.57;;;;;;;9.53;81.32;95818.22;4876537;29;20045;-76
2021/06/15 04:30:30;;;;;;;11.25;4.07;;;;;;;9.64;81.53;95823.53;4885367;29;20479;-76
2021/06/15 04:33:03;;;;;;;8.82;4.13;;;;;;;9.76;81.17;95825.97;4876941;29;20045;-76
2021/06/15 04:35:38;;;;;;;10.57;4.38;;;;;;;9.84;81.25;95823.66;4888244;29;20079;-76
2021/06/15 04:38:27;;;;;;;11.77;4.20;;;;;;;9.92;81.63;95824.19;4911943;29;20091;-75
2021/06/15 04:41:01;;;;;;;5.28;3.60;;;;;;;10.02;81.51;95824.25;4895081;29;20052;-76
2021/06/15 04:43:54;;;;;;;9.77;4.57;;;;;;;10.12;81.72;95828.75;4893281;29;20048;-76
2021/06/15 04:46:27;;;;;;;7.85;4.35;;;;;;;10.20;82.17;95826.41;4880227;29;20057;-76
2021/06/15 04:49:05;;;;;;;8.85;4.63;;;;;;;10.32;82.53;95825.38;4892391;29;20148;-76
2021/06/15 04:51:32;;;;;;;7.28;4.57;;;;;;;10.43;82.61;95819.13;4892085;29;20041;-75
2021/06/15 04:53:59;;;;;;;8.45;4.30;;;;;;;10.56;82.93;95833.63;4875059;29;20092;-75
2021/06/15 04:56:28;;;;;;;4.95;3.70;;;;;;;10.69;82.93;95827.06;4898050;29;20044;-76
2021/06/15 04:58:56;;;;;;;8.15;4.18;;;;;;;10.81;82.99;95827.59;4913742;29;20364;-76
2021/06/15 05:01:21;;;;;;;6.75;4.43;;;;;;;10.94;82.94;95828.13;4901106;29;20090;-76
2021/06/15 05:03:47;;;;;;;4.68;3.88;;;;;;;11.06;82.61;95831.28;4893846;29;20454;-76
2021/06/15 05:06:14;;;;;;;7.75;4.30;;;;;;;11.16;82.81;95830.47;4876156;29;20049;-76
2021/06/15 05:08:50;;;;;;;9.02;4.35;;;;;;;11.32;82.29;95834.69;4879914;29;20069;-75
2021/06/15 05:11:18;;;;;;;6.75;4.30;;;;;;;11.40;82.38;95836.78;4894786;29;20040;-76
2021/06/15 05:13:45;;;;;;;6.97;4.45;;;;;;;11.48;82.13;95832.81;4891282;29;20051;-75
2021/06/15 05:16:12;;;;;;;7.40;4.25;;;;;;;11.52;81.75;95833.88;4894453;29;20048;-76
2021/06/15 05:18:38;;;;;;;7.05;4.07;;;;;;;11.67;82.18;95834.91;4893039;29;20037;-76
2021/06/15 05:21:09;;;;;;;6.13;4.22;;;;;;;11.85;80.75;95836.94;4897717;29;20057;-76
2021/06/15 05:23:43;;;;;;;8.90;4.43;;;;;;;11.93;81.57;95839.03;4899269;29;20064;-76
2021/06/15 05:26:09;;;;;;;6.45;3.95;;;;;;;12.01;81.64;95837.72;4892790;29;20048;-76
2021/06/15 05:28:35;;;;;;;6.82;4.55;;;;;;;12.13;80.27;95842.66;4905055;29;20524;-76
2021/06/15 05:31:00;;;;;;;9.25;4.50;;;;;;;12.21;80.61;95833.38;4874875;29;20132;-76
2021/06/15 05:33:26;;;;;;;6.45;4.50;;;;;;;12.38;79.21;95833.81;4879341;29;20152;-76
2021/06/15 05:35:51;;;;;;;8.60;4.03;;;;;;;12.42;80.78;95834.09;4894569;29;20048;-75
2021/06/15 05:38:17;;;;;;;6.07;4.22;;;;;;;12.53;79.77;95832.97;4876756;29;20305;-76
2021/06/15 05:40:45;;;;;;;6.60;3.72;;;;;;;12.85;76.10;95831.69;4894756;29;20079;-76
2021/06/15 05:43:10;;;;;;;5.78;3.70;;;;;;;13.00;77.44;95842.16;4899003;29;20103;-76
2021/06/15 05:45:36;;;;;;;6.90;3.72;;;;;;;13.00;79.21;95842.16;4887925;29;20045;-75
2021/06/15 05:48:02;;;;;;;9.15;4.05;;;;;;;13.03;78.12;95843.47;4886920;29;20095;-76
2021/06/15 05:50:28;;;;;;;7.95;4.00;;;;;;;13.12;75.86;95835.72;4893122;29;20050;-76
2021/06/15 05:52:53;;;;;;;5.95;3.90;;;;;;;13.21;77.73;95839.34;4900887;29;20608;-76
2021/06/15 05:55:19;;;;;;;7.55;3.92;;;;;;;13.24;78.36;95838.78;4892615;29;20116;-76
2021/06/15 05:57:45;;;;;;;5.60;3.78;;;;;;;13.30;77.95;95842.97;4876973;29;20049;-76
2021/06/15 06:00:11;;;;;;;7.93;3.88;;;;;;;13.31;78.44;95839.22;4877408;29;20140;-76
2021/06/15 06:02:36;;;;;;;9.40;4.18;;;;;;;13.41;78.56;95848.19;4881231;29;20180;-76
2021/06/15 06:08:04;;;;;;;6.90;3.95;;;;;;;13.50;78.34;95852.59;4903896;29;20045;-76
2021/06/15 06:08:06;;;;;;;7.50;3.80;;;;;;;13.57;77.16;95851.47;4891920;29;20051;-77
2021/06/15 06:10:32;;;;;;;6.20;4.17;;;;;;;13.65;77.43;95854.28;4900030;29;20408;-76
2021/06/15 06:12:57;;;;;;;6.38;3.63;;;;;;;13.76;77.26;95859.47;4902926;29;20061;-76
2021/06/15 06:15:23;;;;;;;6.28;3.40;;;;;;;14.08;74.16;95858.06;4875565;29;20396;-76
2021/06/15 06:17:49;;;;;;;6.43;3.42;;;;;;;14.40;73.31;95861.91;4874736;29;20056;-75
2021/06/15 06:20:16;;;;;;;7.22;3.60;;;;;;;14.61;72.37;95857.13;4893553;29;20068;-76
2021/06/15 06:22:43;;;;;;;8.93;4.10;;;;;;;14.55;73.51;95859.06;4895218;29;20063;-75
2021/06/15 06:25:13;;;;;;;11.07;3.55;;;;;;;14.57;73.24;95862.22;4893321;29;20116;-76
2021/06/15 06:27:39;;;;;;;6.63;3.80;;;;;;;14.76;70.92;95859.59;4888855;29;20056;-75
2021/06/15 06:30:07;;;;;;;10.32;3.92;;;;;;;14.70;73.35;95855.44;4889024;29;20116;-76
2021/06/15 06:32:33;;;;;;;5.03;3.60;;;;;;;14.66;74.44;95849.91;4899655;29;20047;-76
2021/06/15 06:35:01;;;;;;;7.50;3.78;;;;;;;14.84;72.47;95855.50;4896710;29;20037;-77
2021/06/15 06:37:27;;;;;;;7.05;3.63;;;;;;;15.45;66.94;95847.66;4887742;29;20049;-77
2021/06/15 06:39:53;;;;;;;11.35;5.15;;;;;;;15.32;69.30;95849.97;4895105;29;20041;-77
2021/06/15 06:42:19;;;;;;;10.23;3.60;;;;;;;15.16;68.62;95846.03;4894654;29;20126;-77
2021/06/15 06:44:45;;;;;;;7.93;3.85;;;;;;;15.36;68.64;95847.53;4905480;29;20498;-77
2021/06/15 06:47:10;;;;;;;8.93;3.40;;;;;;;15.82;67.02;95851.28;4883100;29;20632;-77
2021/06/15 06:49:36;;;;;;;8.13;3.28;;;;;;;16.25;63.57;95848.31;4889129;29;20045;-77
2021/06/15 06:52:02;;;;;;;7.05;3.40;;;;;;;16.31;64.91;95855.09;4897386;29;20055;-77
2021/06/15 06:54:27;;;;;;;5.90;3.20;;;;;;;16.45;65.20;95847.09;4891591;29;20466;-77
2021/06/15 06:56:54;;;;;;;5.65;3.17;;;;;;;16.36;66.19;95849.66;4882512;29;20041;-77
2021/06/15 06:59:19;;;;;;;9.05;3.30;;;;;;;16.31;65.61;95846.34;4891021;29;20055;-80
2021/06/15 07:01:45;;;;;;;12.20;3.60;;;;;;;16.21;62.52;95831.41;4880207;29;20415;-76
2021/06/15 07:04:11;;;;;;;8.80;3.47;;;;;;;16.17;63.49;95841.03;4902296;29;20486;-78
2021/06/15 07:06:36;;;;;;;7.80;3.17;;;;;;;16.21;63.02;95836.72;4900686;29;20040;-77
2021/06/15 07:09:01;;;;;;;8.05;3.17;;;;;;;16.23;64.57;95834.53;4885867;29;20120;-72
2021/06/15 07:11:27;;;;;;;11.27;3.25;;;;;;;16.58;62.03;95834.88;4896014;29;20064;-76
2021/06/15 07:13:53;;;;;;;8.38;3.72;;;;;;;16.70;59.89;95835.13;4902644;29;20073;-73
2021/06/15 07:16:18;;;;;;;7.07;3.33;;;;;;;16.67;58.94;95838.38;4890445;29;20037;-78
2021/06/15 07:18:44;;;;;;;9.23;3.05;;;;;;;17.50;53.85;95831.94;4908808;29;20064;-75
2021/06/15 07:21:09;;;;;;;5.18;2.60;;;;;;;17.09;58.79;95833.72;4905251;29;20048;-76
2021/06/15 07:23:36;;;;;;;8.50;3.08;;;;;;;16.98;58.66;95832.38;4885820;29;20076;-75
2021/06/15 07:26:03;;;;;;;6.88;3.30;;;;;;;17.37;57.38;95828.25;4889140;29;20467;-75
2021/06/15 07:28:28;;;;;;;6.05;3.00;;;;;;;17.51;57.08;95827.38;4883969;29;20075;-74
2021/06/15 07:30:53;;;;;;;6.88;3.35;;;;;;;17.67;56.55;95825.91;4883156;29;20471;-75
2021/06/15 07:33:19;;;;;;;5.90;3.00;;;;;;;17.52;56.26;95826.28;4880424;29;20123;-75
2021/06/15 07:35:45;;;;;;;8.68;3.95;;;;;;;17.58;55.16;95825.84;4895280;29;20549;-76
2021/06/15 07:38:10;;;;;;;8.63;3.00;;;;;;;18.01;52.57;95824.47;4900101;29;20048;-75
2021/06/15 07:40:36;;;;;;;9.70;3.35;;;;;;;18.29;50.60;95834.91;4916114;29;20047;-74
2021/06/15 07:43:01;;;;;;;6.93;3.10;;;;;;;17.91;53.57;95827.41;4923034;29;20258;-74
2021/06/15 07:45:31;;;;;;;6.07;2.90;;;;;;;17.71;53.57;95832.16;4904145;29;20071;-75
2021/06/15 07:47:57;;;;;;;9.15;3.00;;;;;;;18.26;50.03;95822.16;4896402;29;20044;-75
2021/06/15 07:50:24;;;;;;;5.63;3.30;;;;;;;18.34;48.26;95821.41;4899681;29;20067;-74
2021/06/15 07:52:49;;;;;;;8.40;3.45;;;;;;;18.31;51.15;95828.13;4897851;29;20048;-73
2021/06/15 07:55:18;;;;;;;7.45;3.00;;;;;;;18.09;54.46;95826.38;4897342;29;20064;-74
2021/06/15 07:57:44;;;;;;;7.10;3.22;;;;;;;18.15;51.56;95835.00;4898821;29;20048;-74
2021/06/15 08:00:11;;;;;;;6.93;3.38;;;;;;;18.51;47.56;95826.75;4918234;29;20498;-74
2021/06/15 08:02:36;;;;;;;9.63;3.30;;;;;;;18.60;47.43;95829.41;4905891;29;20499;-74
2021/06/15 08:05:03;;;;;;;7.88;3.08;;;;;;;18.74;46.33;95826.63;4896183;29;20136;-73
2021/06/15 08:07:28;;;;;;;6.45;3.30;;;;;;;18.81;48.40;95824.25;4896945;29;20048;-75
2021/06/15 08:09:57;;;;;;;8.20;3.40;;;;;;;18.78;49.66;95829.44;4894870;29;20041;-74
2021/06/15 08:12:23;;;;;;;8.80;3.50;;;;;;;18.70;50.29;95828.34;4883399;29;20045;-74
2021/06/15 08:14:48;;;;;;;8.23;3.13;;;;;;;18.70;49.97;95817.66;4879672;29;20465;-73
2021/06/15 08:17:14;;;;;;;5.03;2.90;;;;;;;18.78;51.68;95822.22;4889075;29;20044;-74
2021/06/15 08:19:40;;;;;;;7.55;3.47;;;;;;;19.09;47.99;95823.94;4903564;29;20043;-74
2021/06/15 08:22:06;;;;;;;6.00;3.17;;;;;;;19.20;46.18;95824.41;4918332;29;20070;-73
2021/06/15 08:24:32;;;;;;;7.05;3.65;;;;;;;19.00;49.87;95820.50;4895038;29;20049;-75
2021/06/15 08:26:58;;;;;;;6.13;3.40;;;;;;;19.09;50.51;95815.94;4894383;29;20044;-75
2021/06/15 08:29:23;;;;;;;7.72;3.38;;;;;;;19.18;47.95;95821.28;4886085;29;20463;-75
2021/06/15 08:31:49;;;;;;;7.93;3.28;;;;;;;19.42;49.33;95818.06;4875809;29;20056;-75
2021/06/15 08:34:15;;;;;;;7.32;3.30;;;;;;;19.29;47.89;95821.72;4885209;29;20045;-75
2021/06/15 08:36:40;;;;;;;7.35;3.35;;;;;;;19.35;48.64;95815.91;4883494;29;20052;-75
2021/06/15 08:39:08;;;;;;;7.10;3.20;;;;;;;19.56;47.99;95825.88;4902221;29;20127;-76
2021/06/15 08:41:34;;;;;;;6.75;3.30;;;;;;;19.88;46.20;95821.88;4880762;29;20084;-76
2021/06/15 08:44:02;;;;;;;8.30;3.58;;;;;;;19.96;44.40;95824.81;4883221;29;20112;-77
2021/06/15 08:46:28;;;;;;;5.90;3.08;;;;;;;20.07;45.41;95831.38;4889420;29;20452;-77
2021/06/15 08:48:55;;;;;;;8.93;3.08;;;;;;;20.02;45.43;95820.84;4893768;29;20045;-76
2021/06/15 08:51:21;;;;;;;11.20;3.47;;;;;;;20.04;43.46;95826.66;4893508;29;20044;-77
2021/06/15 08:53:52;;;;;;;10.48;3.08;;;;;;;20.02;43.37;95826.19;4886218;29;20041;-77
2021/06/15 08:56:22;;;;;;;8.70;3.20;;;;;;;20.16;42.69;95824.09;4882246;29;20048;-78
2021/06/15 08:59:16;;;;;;;6.95;3.25;;;;;;;20.24;43.24;95828.59;4896609;29;20490;-78
2021/06/15 09:01:43;;;;;;;39.00;7.78;;;;;;;20.51;41.36;95823.84;4879298;29;20113;-77
2021/06/15 09:04:09;;;;;;;23.98;5.78;;;;;;;20.41;43.45;95832.25;4884447;29;20044;-77
2021/06/15 09:06:34;;;;;;;6.95;3.30;;;;;;;20.50;43.06;95830.31;4882307;29;20051;-77
2021/06/15 09:09:00;;;;;;;7.20;2.92;;;;;;;20.72;41.71;95831.13;4885350;29;20189;-76
2021/06/15 09:11:46;;;;;;;6.72;3.05;;;;;;;20.93;40.42;95823.88;4877865;29;20049;-78
2021/06/15 09:14:11;;;;;;;7.20;2.90;;;;;;;21.01;40.82;95824.91;4878993;29;20052;-77
2021/06/15 09:16:37;;;;;;;7.40;2.83;;;;;;;21.11;39.10;95821.81;4879257;29;20052;-77
2021/06/15 09:19:22;;;;;;;6.32;2.85;;;;;;;21.16;36.66;95818.19;4876976;29;20037;-77
2021/06/15 09:21:49;;;;;;;18.50;3.50;;;;;;;21.08;39.76;95821.72;4877295;29;20575;-76
2021/06/15 09:24:16;;;;;;;7.15;2.92;;;;;;;21.10;38.30;95824.81;4876434;29;20701;-77
2021/06/15 09:27:05;;;;;;;7.22;2.45;;;;;;;21.27;38.49;95813.19;4885231;29;20064;-78
2021/06/15 09:29:33;;;;;;;7.90;3.10;;;;;;;21.50;39.67;95820.81;4894186;29;20040;-78
2021/06/15 09:31:59;;;;;;;5.45;2.97;;;;;;;21.44;40.08;95823.69;4879067;29;20510;-77
2021/06/15 09:34:24;;;;;;;5.75;3.10;;;;;;;21.54;38.67;95822.53;4876218;29;20045;-78
2021/06/15 09:36:52;;;;;;;7.30;2.80;;;;;;;21.62;38.89;95813.63;4875134;29;20040;-78
2021/06/15 09:39:18;;;;;;;5.72;2.78;;;;;;;21.63;37.50;95815.16;4888844;29;20040;-77
2021/06/15 09:41:45;;;;;;;8.90;3.17;;;;;;;21.77;37.74;95814.06;4896862;29;20499;-77
2021/06/15 09:44:21;;;;;;;5.25;2.80;;;;;;;21.78;37.13;95813.72;4895139;29;20510;-76
2021/06/15 09:46:46;;;;;;;8.05;2.55;;;;;;;21.80;36.30;95818.75;4894410;29;20517;-76
2021/06/15 09:49:13;;;;;;;4.63;2.45;;;;;;;21.82;35.63;95816.50;4895457;29;20048;-78
2021/06/15 09:51:40;;;;;;;8.60;3.00;;;;;;;21.97;35.81;95813.19;4893038;29;20049;-81
2021/06/15 09:54:05;;;;;;;6.25;2.80;;;;;;;22.05;34.70;95813.41;4906521;29;20045;-77
2021/06/15 09:56:31;;;;;;;4.32;2.50;;;;;;;22.26;35.18;95813.28;4895265;29;20036;-76
2021/06/15 09:58:58;;;;;;;4.78;2.60;;;;;;;22.39;36.51;95806.78;4894982;29;20068;-75
2021/06/15 10:01:35;;;;;;;9.20;3.08;;;;;;;22.75;36.73;95809.72;4890368;29;20492;-75
2021/06/15 10:04:20;;;;;;;6.13;2.78;;;;;;;22.83;32.07;95804.22;4879364;29;20346;-73
2021/06/15 10:06:51;;;;;;;4.45;2.30;;;;;;;23.04;30.60;95808.59;4893570;29;20040;-73
2021/06/15 10:09:35;;;;;;;6.40;2.40;;;;;;;23.18;30.85;95808.22;4887194;29;20045;-74
2021/06/15 10:12:06;;;;;;;4.28;2.25;;;;;;;23.40;30.95;95808.78;4893534;29;20100;-75
2021/06/15 10:14:34;;;;;;;5.85;2.50;;;;;;;23.56;30.74;95801.53;4881524;29;20056;-73
2021/06/15 10:17:00;;;;;;;4.75;2.58;;;;;;;23.91;30.46;95800.84;4880376;29;20049;-76
2021/06/15 10:19:26;;;;;;;5.82;2.47;;;;;;;24.24;29.69;95812.31;4910733;29;20454;-77
2021/06/15 10:21:52;;;;;;;5.90;2.45;;;;;;;24.25;29.34;95814.69;4905363;29;20253;-76
2021/06/15 10:24:22;;;;;;;5.43;2.80;;;;;;;24.49;29.07;95815.56;4896105;29;20391;-76
2021/06/15 10:26:48;;;;;;;6.20;2.25;;;;;;;24.97;27.56;95810.81;4897431;29;20053;-76
2021/06/15 10:29:16;;;;;;;6.50;2.70;;;;;;;25.23;27.04;95806.69;4886370;29;20136;-75
2021/06/15 10:31:44;;;;;;;3.67;2.50;;;;;;;25.84;28.21;95798.88;4879306;29;20415;-76
2021/06/15 10:34:09;;;;;;;4.70;2.45;;;;;;;25.91;27.75;95805.13;4879551;29;20049;-80
2021/06/15 10:36:40;;;;;;;5.93;2.50;;;;;;;25.73;27.26;95801.38;4892710;29;20096;-78
2021/06/15 10:39:19;;;;;;;5.78;2.50;;;;;;;25.92;28.48;95808.63;4903000;29;20071;-78
2021/06/15 10:41:46;;;;;;;4.88;2.63;;;;;;;25.99;27.74;95807.94;4893008;29;20060;-78
2021/06/15 10:44:14;;;;;;;5.10;3.00;;;;;;;26.41;27.76;95796.25;4891998;29;20432;-78
2021/06/15 10:46:42;;;;;;;8.60;2.97;;;;;;;26.88;27.83;95804.94;4897776;29;20048;-76
2021/06/15 10:49:15;;;;;;;4.05;2.55;;;;;;;27.17;26.00;95797.16;4897360;29;20419;-80
2021/06/15 10:51:56;;;;;;;4.40;2.63;;;;;;;26.66;27.72;95791.16;4901110;29;20041;-80
2021/06/15 10:54:29;;;;;;;6.78;3.08;;;;;;;26.70;29.09;95792.00;4895425;29;20045;-78
2021/06/15 10:57:13;;;;;;;5.90;3.40;;;;;;;26.91;28.29;95790.69;4892747;29;20115;-80
2021/06/15 11:00:00;;;;;;;6.22;3.15;;;;;;;27.47;29.38;95792.47;4906345;29;20041;-81
2021/06/15 11:02:28;;;;;;;7.18;3.53;;;;;;;28.02;29.98;95793.69;4885601;29;20053;-80
2021/06/15 11:04:55;;;;;;;5.38;3.50;;;;;;;27.69;28.51;95789.94;4899644;29;20348;-81
2021/06/15 11:07:34;;;;;;;8.10;3.50;;;;;;;27.88;28.88;95791.63;4904462;29;20040;-78
2021/06/15 11:10:01;;;;;;;9.10;3.38;;;;;;;27.25;29.33;95798.78;4909210;29;20044;-76
2021/06/15 11:12:26;;;;;;;7.43;3.08;;;;;;;27.13;28.93;95787.09;4886313;29;20325;-78
2021/06/15 11:15:13;;;;;;;7.93;3.22;;;;;;;28.64;28.54;95786.72;4892451;29;20044;-78
2021/06/15 11:17:47;;;;;;;10.93;3.35;;;;;;;28.31;27.76;95796.59;4899490;29;20049;-77
2021/06/15 11:20:24;;;;;;;8.25;3.20;;;;;;;28.43;27.76;95790.88;4904894;29;20049;-78
2021/06/15 11:23:14;;;;;;;6.65;3.33;;;;;;;28.68;27.95;95798.34;4906768;29;20041;-77
2021/06/15 11:25:44;;;;;;;5.82;3.17;;;;;;;29.47;26.91;95793.16;4896361;29;20459;-78
2021/06/15 11:28:46;;;;;;;16.30;3.47;;;;;;;30.41;25.42;95782.25;4908242;29;20051;-77
2021/06/15 11:31:17;;;;;;;8.70;4.05;;;;;;;30.10;26.44;95786.59;4917489;29;20040;-76
2021/06/15 11:33:58;;;;;;;12.02;4.00;;;;;;;29.50;26.87;95792.38;4901611;29;20048;-78
2021/06/15 11:36:38;;;;;;;7.93;3.47;;;;;;;29.61;26.67;95780.78;4907094;29;20036;-78
2021/06/15 11:39:22;;;;;;;10.43;3.53;;;;;;;30.10;26.26;95789.28;4916055;29;20055;-79
2021/06/15 11:42:07;;;;;;;6.82;3.40;;;;;;;30.44;24.74;95781.50;4924315;29;20051;-81
2021/06/15 11:44:57;;;;;;;9.35;3.42;;;;;;;28.65;26.75;95780.16;4906782;29;20048;-81
2021/06/15 11:47:49;;;;;;;6.75;3.40;;;;;;;29.97;26.15;95780.78;4898304;29;20045;-78